createdAt,value
2022-10-02T00:03:48.542Z,1006.5
2022-10-02T00:08:47.755Z,1006.5
2022-10-02T00:13:47.784Z,1006.6
2022-10-02T00:18:47.798Z,1006.6
2022-10-02T00:23:48.298Z,1006.6
2022-10-02T00:28:48.349Z,1006.6
2022-10-02T00:33:48.362Z,1006.6
2022-10-02T00:38:48.340Z,1006.6
2022-10-02T00:43:48.367Z,1006.6
2022-10-02T00:48:48.355Z,1006.6
2022-10-02T00:53:48.621Z,1006.7
2022-10-02T00:58:48.688Z,1006.7
2022-10-02T01:03:47.832Z,1006.7
2022-10-02T01:08:48.067Z,1006.7
2022-10-02T01:13:48.281Z,1007.1
2022-10-02T01:18:47.828Z,1007.1
2022-10-02T01:23:47.822Z,1007.2
2022-10-02T01:28:47.889Z,1007.2
2022-10-02T01:33:48.617Z,1007.2
2022-10-02T01:38:48.992Z,1007.2
2022-10-02T01:43:48.068Z,1007.6
2022-10-02T01:48:48.045Z,1007.6
2022-10-02T01:53:48.066Z,1007.6
2022-10-02T01:58:48.158Z,1007.6
2022-10-02T02:03:48.343Z,1007.6
2022-10-02T02:08:48.611Z,1007.6
2022-10-02T02:13:47.798Z,1007.7
2022-10-02T02:18:48.071Z,1007.7
2022-10-02T02:23:48.169Z,1007.7
2022-10-02T02:28:48.189Z,1007.7
2022-10-02T02:33:48.476Z,1007.7
2022-10-02T02:38:48.714Z,1007.7
2022-10-02T02:43:48.050Z,1007.3
2022-10-02T02:48:48.462Z,1007.3
2022-10-02T02:53:48.491Z,1007.4
2022-10-02T02:58:48.327Z,1007.4
2022-10-02T03:03:48.728Z,1007.5
2022-10-02T03:08:49.986Z,1007.5
2022-10-02T03:13:48.304Z,1007.6
2022-10-02T03:18:48.610Z,1007.6
2022-10-02T03:23:47.900Z,1007.7
2022-10-02T03:28:55.857Z,1007.7
2022-10-02T03:33:47.790Z,1007.7
2022-10-02T03:39:00.714Z,1007.7
2022-10-02T03:43:48.603Z,1007.8
2022-10-02T03:48:48.031Z,1007.8
2022-10-02T03:53:48.647Z,1007.9
2022-10-02T03:58:47.949Z,1007.9
2022-10-02T04:03:48.201Z,1007.9
2022-10-02T04:08:48.392Z,1007.9
2022-10-02T04:13:48.220Z,1008.1
2022-10-02T04:18:48.436Z,1008.1
2022-10-02T04:23:48.372Z,1007.8
2022-10-02T04:28:48.523Z,1007.8
2022-10-02T04:33:48.550Z,1007.7
2022-10-02T04:38:48.468Z,1007.7
2022-10-02T04:43:48.704Z,1007.9
2022-10-02T04:48:47.983Z,1007.9
2022-10-02T04:53:48.507Z,1007.9
2022-10-02T04:58:48.081Z,1007.9
2022-10-02T05:03:48.407Z,1007.9
2022-10-02T05:08:48.679Z,1007.9
2022-10-02T05:13:48.014Z,1007.8
2022-10-02T05:18:48.092Z,1007.8
2022-10-02T05:23:48.404Z,1008.1
2022-10-02T05:28:48.669Z,1008.1
2022-10-02T05:33:48.483Z,1008.1
2022-10-02T05:38:48.896Z,1008.1
2022-10-02T05:43:48.077Z,1008
2022-10-02T05:48:48.335Z,1008
2022-10-02T05:53:48.468Z,1008.1
2022-10-02T05:58:48.598Z,1008.1
2022-10-02T06:03:48.804Z,1008.1
2022-10-02T06:08:47.978Z,1008.1
2022-10-02T06:13:48.211Z,1008.1
2022-10-02T06:18:48.352Z,1008.1
2022-10-02T06:23:48.536Z,1008.2
2022-10-02T06:28:48.741Z,1008.2
2022-10-02T06:33:48.817Z,1008.2
2022-10-02T06:38:48.099Z,1008.2
2022-10-02T06:43:48.221Z,1008.6
2022-10-02T06:48:48.384Z,1008.6
2022-10-02T06:53:48.505Z,1008.7
2022-10-02T06:58:48.633Z,1008.7
2022-10-02T07:03:48.037Z,1008.7
2022-10-02T07:08:48.296Z,1008.7
2022-10-02T07:13:48.358Z,1008.7
2022-10-02T07:18:48.439Z,1008.7
2022-10-02T07:23:48.698Z,1008.7
2022-10-02T07:28:47.897Z,1008.7
2022-10-02T07:33:47.939Z,1008.7
2022-10-02T07:38:47.966Z,1008.7
2022-10-02T07:43:47.990Z,1009.3
2022-10-02T07:48:48.131Z,1009.3
2022-10-02T07:53:48.234Z,1009.3
2022-10-02T07:58:48.406Z,1009.3
2022-10-02T08:03:48.487Z,1009.3
2022-10-02T08:08:48.693Z,1009.3
2022-10-02T08:13:48.748Z,1009.2
2022-10-02T08:18:48.906Z,1009.2
2022-10-02T08:23:48.960Z,1009.4
2022-10-02T08:28:48.179Z,1009.4
2022-10-02T08:33:48.279Z,1009.5
2022-10-02T08:38:52.584Z,1009.5
2022-10-02T08:43:48.164Z,1009.6
2022-10-02T08:48:48.309Z,1009.6
2022-10-02T08:53:48.825Z,1009.7
2022-10-02T08:58:48.276Z,1009.7
2022-10-02T09:03:48.628Z,1009.7
2022-10-02T09:08:48.937Z,1009.7
2022-10-02T09:13:48.254Z,1009.4
2022-10-02T09:18:48.529Z,1009.4
2022-10-02T09:23:48.825Z,1009.6
2022-10-02T09:28:48.283Z,1009.6
2022-10-02T09:33:48.423Z,1009.7
2022-10-02T09:38:48.846Z,1009.7
2022-10-02T09:43:48.264Z,1009.7
2022-10-02T09:48:48.446Z,1009.7
2022-10-02T09:53:48.830Z,1009.6
2022-10-02T09:58:48.882Z,1009.6
2022-10-02T10:03:48.043Z,1009.6
2022-10-02T10:08:48.154Z,1009.6
2022-10-02T10:13:48.358Z,1009.6
2022-10-02T10:18:48.475Z,1009.6
2022-10-02T10:23:48.538Z,1009.6
2022-10-02T10:28:48.694Z,1009.6
2022-10-02T10:33:48.891Z,1009.6
2022-10-02T10:38:48.148Z,1009.6
2022-10-02T10:43:48.350Z,1009.7
2022-10-02T10:48:49.718Z,1009.7
2022-10-02T10:53:48.082Z,1009.9
2022-10-02T10:58:48.287Z,1009.9
2022-10-02T11:03:48.786Z,1009.9
2022-10-02T11:08:48.976Z,1009.9
2022-10-02T11:13:48.148Z,1009.9
2022-10-02T11:18:48.284Z,1009.9
2022-10-02T11:23:48.472Z,1010
2022-10-02T11:28:48.634Z,1010
2022-10-02T11:33:48.847Z,1010
2022-10-02T11:38:49.063Z,1010
2022-10-02T11:43:48.175Z,1010.1
2022-10-02T11:48:48.338Z,1010.1
2022-10-02T11:53:48.463Z,1010.2
2022-10-02T11:58:48.634Z,1010.2
2022-10-02T12:03:48.711Z,1010.2
2022-10-02T12:08:48.772Z,1010.2
2022-10-02T12:13:48.931Z,1010.1
2022-10-02T12:18:48.176Z,1010.1
2022-10-02T12:23:48.242Z,1010.2
2022-10-02T12:28:48.553Z,1010.2
2022-10-02T12:33:51.751Z,1010.2
2022-10-02T12:38:49.107Z,1010.2
2022-10-02T12:43:48.277Z,1010.4
2022-10-02T12:48:48.491Z,1010.4
2022-10-02T12:53:48.725Z,1010.4
2022-10-02T12:58:48.997Z,1010.4
2022-10-02T13:03:48.230Z,1010.4
2022-10-02T13:08:48.554Z,1010.4
2022-10-02T13:13:48.797Z,1010.5
2022-10-02T13:18:48.231Z,1010.5
2022-10-02T13:23:48.381Z,1010.6
2022-10-02T13:28:48.668Z,1010.6
2022-10-02T13:33:48.568Z,1010.6
2022-10-02T13:38:48.771Z,1010.6
2022-10-02T13:43:48.162Z,1010.6
2022-10-02T13:48:48.553Z,1010.6
2022-10-02T13:53:48.852Z,1010.6
2022-10-02T13:58:49.149Z,1010.6
2022-10-02T14:03:48.278Z,1010.6
2022-10-02T14:08:48.524Z,1010.6
2022-10-02T14:13:48.657Z,1010.7
2022-10-02T14:18:48.729Z,1010.7
2022-10-02T14:23:48.797Z,1010.9
2022-10-02T14:28:48.995Z,1010.9
2022-10-02T14:33:48.168Z,1011
2022-10-02T14:38:48.644Z,1011
2022-10-02T14:43:49.012Z,1011.2
2022-10-02T14:48:48.271Z,1011.2
2022-10-02T14:53:48.545Z,1011.2
2022-10-02T14:58:48.446Z,1011.2
2022-10-02T15:03:49.112Z,1011.2
2022-10-02T15:08:48.957Z,1011.2
2022-10-02T15:13:48.491Z,1011.2
2022-10-02T15:18:48.941Z,1011.2
2022-10-02T15:23:48.330Z,1011.3
2022-10-02T15:28:48.802Z,1011.3
2022-10-02T15:33:49.170Z,1011.4
2022-10-02T15:38:48.449Z,1011.4
2022-10-02T15:43:48.617Z,1011.6
2022-10-02T15:48:52.383Z,1011.6
2022-10-02T15:53:49.139Z,1011.7
2022-10-02T15:58:48.299Z,1011.7
2022-10-02T16:03:48.421Z,1011.7
2022-10-02T16:08:48.926Z,1011.7
2022-10-02T16:13:48.361Z,1011.9
2022-10-02T16:18:48.480Z,1011.9
2022-10-02T16:23:49.019Z,1012.1
2022-10-02T16:28:49.232Z,1012.1
2022-10-02T16:33:48.671Z,1012.2
2022-10-02T16:38:48.884Z,1012.2
2022-10-02T16:43:48.999Z,1012.2
2022-10-02T16:48:49.150Z,1012.2
2022-10-02T16:53:48.334Z,1012.6
2022-10-02T16:58:48.548Z,1012.6
2022-10-02T17:03:48.783Z,1012.8
2022-10-02T17:08:48.932Z,1012.8
2022-10-02T17:13:48.501Z,1012.9
2022-10-02T17:18:48.660Z,1012.9
2022-10-02T17:23:48.858Z,1013
2022-10-02T17:28:49.058Z,1013
2022-10-02T17:33:49.201Z,1013.1
2022-10-02T17:38:48.420Z,1013.1
2022-10-02T17:43:48.765Z,1013.4
2022-10-02T17:48:48.881Z,1013.4
2022-10-02T17:53:49.031Z,1013.6
2022-10-02T17:58:49.231Z,1013.6
2022-10-02T18:03:48.375Z,1013.7
2022-10-02T18:08:48.437Z,1013.7
2022-10-02T18:13:48.774Z,1013.9
2022-10-02T18:18:48.933Z,1013.9
2022-10-02T18:23:49.182Z,1014
2022-10-02T18:28:48.269Z,1014
2022-10-02T18:33:48.351Z,1014.1
2022-10-02T18:38:48.395Z,1014.1
2022-10-02T18:43:48.773Z,1014.4
2022-10-02T18:48:48.898Z,1014.4
2022-10-02T18:53:48.945Z,1014.5
2022-10-02T18:58:49.033Z,1014.5
2022-10-02T19:03:49.115Z,1014.5
2022-10-02T19:08:49.335Z,1014.5
2022-10-02T19:13:48.370Z,1014.6
2022-10-02T19:18:48.585Z,1014.6
2022-10-02T19:23:48.631Z,1014.8
2022-10-02T19:28:49.046Z,1014.8
2022-10-02T19:33:49.158Z,1014.9
2022-10-02T19:38:49.282Z,1014.9
2022-10-02T19:43:48.420Z,1014.9
2022-10-02T19:48:48.556Z,1014.9
2022-10-02T19:53:48.696Z,1015
2022-10-02T19:58:48.810Z,1015
2022-10-02T20:03:49.132Z,1015
2022-10-02T20:08:49.309Z,1015
2022-10-02T20:13:48.472Z,1015.2
2022-10-02T20:18:48.566Z,1015.2
2022-10-02T20:23:48.772Z,1015.3
2022-10-02T20:28:48.978Z,1015.3
2022-10-02T20:33:49.084Z,1015.4
2022-10-02T20:38:49.445Z,1015.4
2022-10-02T20:43:48.835Z,1015.5
2022-10-02T20:49:07.371Z,1015.5
2022-10-02T20:53:48.523Z,1015.6
2022-10-02T20:58:49.252Z,1015.6
2022-10-02T21:03:48.510Z,1015.6
2022-10-02T21:08:48.658Z,1015.6
2022-10-02T21:13:49.123Z,1015.8
2022-10-02T21:18:49.139Z,1015.8
2022-10-02T21:23:48.533Z,1015.9
2022-10-02T21:28:48.869Z,1015.9
2022-10-02T21:33:49.139Z,1015.9
2022-10-02T21:38:49.364Z,1015.9
2022-10-02T21:43:48.494Z,1016
2022-10-02T21:48:48.714Z,1016
2022-10-02T21:53:48.832Z,1016.1
2022-10-02T21:58:49.073Z,1016.1
2022-10-02T22:03:49.446Z,1016.1
2022-10-02T22:08:48.759Z,1016.1
2022-10-02T22:13:48.713Z,1016.2
2022-10-02T22:18:49.299Z,1016.2
2022-10-02T22:23:48.607Z,1016.3
2022-10-02T22:28:49.182Z,1016.3
2022-10-02T22:33:48.587Z,1016.4
2022-10-02T22:38:48.878Z,1016.4
2022-10-02T22:43:48.871Z,1016.5
2022-10-02T22:48:48.983Z,1016.5
2022-10-02T22:53:49.165Z,1016.6
2022-10-02T22:58:49.384Z,1016.6
2022-10-02T23:03:48.459Z,1016.6
2022-10-02T23:08:49.229Z,1016.6
2022-10-02T23:13:48.702Z,1016.7
2022-10-02T23:18:48.869Z,1016.7
2022-10-02T23:23:49.146Z,1016.8
2022-10-02T23:28:49.240Z,1016.8
2022-10-02T23:33:48.628Z,1016.9
2022-10-02T23:38:48.811Z,1016.9
2022-10-02T23:43:48.846Z,1016.9
2022-10-02T23:48:48.846Z,1016.9
2022-10-02T23:53:49.134Z,1017
2022-10-02T23:58:49.184Z,1017
